createdAt,value
2019-02-20T00:00:06.701Z,16.10
2019-02-20T00:02:38.800Z,15.83
2019-02-20T00:05:09.391Z,15.13
2019-02-20T00:07:43.706Z,16.53
2019-02-20T00:10:14.464Z,15.43
2019-02-20T00:12:45.025Z,15.63
2019-02-20T00:15:19.298Z,17.30
2019-02-20T00:17:56.155Z,14.70
2019-02-20T00:20:28.415Z,15.77
2019-02-20T00:22:59.654Z,15.17
2019-02-20T00:25:30.300Z,14.77
2019-02-20T00:28:01.082Z,15.07
2019-02-20T00:30:33.219Z,16.03
2019-02-20T00:33:03.952Z,13.97
2019-02-20T00:35:36.148Z,15.00
2019-02-20T00:38:08.355Z,14.33
2019-02-20T00:40:41.580Z,14.97
2019-02-20T00:43:26.033Z,13.93
2019-02-20T00:46:16.098Z,13.57
2019-02-20T00:49:08.856Z,14.03
2019-02-20T00:51:58.481Z,15.27
2019-02-20T00:54:31.082Z,15.53
2019-02-20T00:57:03.990Z,14.90
2019-02-20T00:59:37.042Z,15.57
2019-02-20T01:02:07.805Z,15.03
2019-02-20T01:04:38.696Z,15.20
2019-02-20T01:07:12.304Z,16.03
2019-02-20T01:09:49.186Z,14.70
2019-02-20T01:12:22.424Z,14.97
2019-02-20T01:14:53.869Z,17.77
2019-02-20T01:17:26.249Z,16.67
2019-02-20T01:19:57.012Z,16.53
2019-02-20T01:22:27.730Z,15.57
2019-02-20T01:25:19.174Z,16.43
2019-02-20T01:27:49.813Z,15.17
2019-02-20T01:30:20.363Z,15.87
2019-02-20T01:32:51.126Z,14.00
2019-02-20T01:35:22.214Z,14.30
2019-02-20T01:37:53.048Z,15.30
2019-02-20T01:40:25.406Z,16.27
2019-02-20T01:43:00.051Z,15.50
2019-02-20T01:45:30.464Z,14.77
2019-02-20T01:48:02.747Z,16.53
2019-02-20T01:50:33.121Z,16.80
2019-02-20T01:53:10.100Z,14.43
2019-02-20T01:55:35.867Z,14.53
2019-02-20T01:58:08.225Z,14.03
2019-02-20T02:00:38.846Z,15.57
2019-02-20T02:03:09.369Z,14.97
2019-02-20T02:05:39.960Z,15.00
2019-02-20T02:08:11.866Z,15.67
2019-02-20T02:10:42.440Z,16.80
2019-02-20T02:13:13.080Z,16.43
2019-02-20T02:15:45.798Z,16.43
2019-02-20T02:18:16.451Z,15.67
2019-02-20T02:20:47.697Z,16.97
2019-02-20T02:23:20.043Z,16.50
2019-02-20T02:25:59.031Z,15.80
2019-02-20T02:28:29.530Z,15.70
2019-02-20T02:31:00.104Z,14.87
2019-02-20T02:33:30.675Z,17.67
2019-02-20T02:36:01.193Z,18.40
2019-02-20T02:38:31.781Z,16.53
2019-02-20T02:41:04.625Z,15.60
2019-02-20T02:43:35.215Z,16.93
2019-02-20T02:46:05.806Z,16.33
2019-02-20T02:48:36.443Z,17.00
2019-02-20T02:51:07.251Z,17.67
2019-02-20T02:53:37.844Z,16.00
2019-02-20T02:56:08.368Z,16.00
2019-02-20T02:58:38.860Z,16.13
2019-02-20T03:01:09.442Z,17.30
2019-02-20T03:03:40.028Z,16.97
2019-02-20T03:06:17.037Z,16.03
2019-02-20T03:08:47.603Z,16.63
2019-02-20T03:11:18.026Z,18.20
2019-02-20T03:13:48.632Z,16.77
2019-02-20T03:16:19.221Z,16.57
2019-02-20T03:18:50.109Z,16.43
2019-02-20T03:21:22.904Z,17.83
2019-02-20T03:23:53.463Z,17.73
2019-02-20T03:26:24.090Z,17.70
2019-02-20T03:28:59.577Z,17.73
2019-02-20T03:31:30.114Z,16.30
2019-02-20T03:34:00.610Z,14.80
2019-02-20T03:36:31.171Z,15.67
2019-02-20T03:39:01.877Z,17.60
2019-02-20T03:41:37.070Z,15.67
2019-02-20T03:44:08.882Z,17.33
2019-02-20T03:46:39.446Z,16.03
2019-02-20T03:49:16.475Z,18.27
2019-02-20T03:51:47.402Z,15.73
2019-02-20T03:54:18.000Z,19.37
2019-02-20T03:56:48.789Z,17.70
2019-02-20T03:59:19.207Z,20.17
2019-02-20T04:01:49.753Z,21.40
2019-02-20T04:04:21.622Z,20.33
2019-02-20T04:06:52.126Z,21.10
2019-02-20T04:09:22.670Z,22.87
2019-02-20T04:11:53.519Z,22.80
2019-02-20T04:14:23.955Z,18.63
2019-02-20T04:16:54.463Z,17.63
2019-02-20T04:19:26.174Z,15.77
2019-02-20T04:21:57.019Z,17.10
2019-02-20T04:24:27.584Z,17.23
2019-02-20T04:26:58.045Z,17.40
2019-02-20T04:29:28.927Z,17.27
2019-02-20T04:31:59.368Z,17.17
2019-02-20T04:34:37.303Z,19.07
2019-02-20T04:37:09.133Z,17.70
2019-02-20T04:39:40.089Z,18.73
2019-02-20T04:42:11.626Z,18.53
2019-02-20T04:44:49.067Z,18.17
2019-02-20T04:47:19.889Z,17.07
2019-02-20T04:49:50.379Z,17.33
2019-02-20T04:52:20.836Z,17.87
2019-02-20T04:54:52.756Z,17.87
2019-02-20T04:57:23.364Z,17.17
2019-02-20T04:59:53.873Z,19.50
2019-02-20T05:02:25.010Z,21.43
2019-02-20T05:04:55.522Z,17.40
2019-02-20T05:07:26.292Z,19.27
2019-02-20T05:09:56.857Z,18.27
2019-02-20T05:12:27.883Z,20.37
2019-02-20T05:14:58.509Z,18.87
2019-02-20T05:17:29.543Z,16.83
2019-02-20T05:20:00.348Z,19.17
2019-02-20T05:22:32.349Z,19.20
2019-02-20T05:25:03.200Z,20.57
2019-02-20T05:27:33.628Z,19.63
2019-02-20T05:30:04.314Z,18.93
2019-02-20T05:32:35.494Z,19.97
2019-02-20T05:35:06.305Z,19.33
2019-02-20T05:37:36.803Z,17.27
2019-02-20T05:40:08.387Z,17.90
2019-02-20T05:42:38.959Z,18.70
2019-02-20T05:45:09.509Z,20.80
2019-02-20T05:47:41.529Z,18.43
2019-02-20T05:50:12.207Z,19.10
2019-02-20T05:52:49.149Z,19.23
2019-02-20T05:55:27.802Z,20.53
2019-02-20T05:57:58.883Z,21.83
2019-02-20T06:00:29.312Z,22.00
2019-02-20T06:02:59.909Z,21.70
2019-02-20T06:05:30.480Z,22.60
2019-02-20T06:08:02.518Z,20.07
2019-02-20T06:10:32.987Z,17.73
2019-02-20T06:13:03.493Z,19.90
2019-02-20T06:15:34.045Z,19.23
2019-02-20T06:18:04.707Z,19.10
2019-02-20T06:20:35.650Z,19.70
2019-02-20T06:23:06.480Z,19.67
2019-02-20T06:25:38.211Z,19.97
2019-02-20T06:28:10.300Z,21.17
2019-02-20T06:30:42.111Z,21.67
2019-02-20T06:33:12.630Z,21.17
2019-02-20T06:35:44.839Z,20.53
2019-02-20T06:38:16.741Z,19.33
2019-02-20T06:40:47.263Z,21.43
2019-02-20T06:43:17.752Z,21.33
2019-02-20T06:45:48.284Z,20.23
2019-02-20T06:48:18.894Z,22.17
2019-02-20T06:50:49.841Z,21.00
2019-02-20T06:53:20.334Z,22.47
2019-02-20T06:55:50.971Z,21.00
2019-02-20T06:58:51.537Z,23.27
2019-02-20T07:01:34.669Z,21.23
2019-02-20T07:04:05.211Z,19.73
2019-02-20T07:07:03.121Z,21.37
2019-02-20T07:10:14.869Z,21.47
2019-02-20T07:12:56.087Z,22.07
2019-02-20T07:16:11.069Z,19.60
2019-02-20T07:19:02.845Z,20.20
2019-02-20T07:22:26.873Z,17.90
2019-02-20T07:25:18.106Z,20.27
2019-02-20T07:28:43.868Z,18.10
2019-02-20T07:31:14.277Z,21.03
2019-02-20T07:33:47.137Z,19.13
2019-02-20T07:36:17.884Z,19.87
2019-02-20T07:38:48.421Z,19.70
2019-02-20T07:41:18.816Z,19.30
2019-02-20T07:43:59.981Z,19.97
2019-02-20T07:46:32.214Z,19.77
2019-02-20T07:49:02.733Z,20.20
2019-02-20T07:51:33.715Z,20.23
2019-02-20T07:54:07.306Z,19.27
2019-02-20T07:56:40.891Z,22.40
2019-02-20T07:59:11.955Z,20.83
2019-02-20T08:01:42.857Z,21.03
2019-02-20T08:04:13.405Z,19.87
2019-02-20T08:06:47.586Z,23.10
2019-02-20T08:09:29.123Z,22.00
2019-02-20T08:12:01.348Z,22.07
2019-02-20T08:14:36.785Z,23.00
2019-02-20T08:17:14.097Z,20.37
2019-02-20T08:19:46.621Z,19.97
2019-02-20T08:22:27.459Z,19.97
2019-02-20T08:25:04.757Z,21.10
2019-02-20T08:27:36.975Z,19.53
2019-02-20T08:30:15.146Z,19.43
2019-02-20T08:32:53.083Z,20.30
2019-02-20T08:35:26.182Z,18.10
2019-02-20T08:38:01.196Z,19.60
2019-02-20T08:41:16.762Z,20.00
2019-02-20T08:47:10.397Z,17.50
2019-02-20T08:49:45.235Z,17.43
2019-02-20T08:52:17.539Z,17.23
2019-02-20T08:54:52.570Z,17.63
2019-02-20T08:57:33.288Z,17.60
2019-02-20T09:00:04.261Z,17.10
2019-02-20T09:02:40.047Z,16.60
2019-02-20T09:05:11.152Z,15.93
2019-02-20T09:07:42.722Z,17.57
2019-02-20T09:10:13.967Z,16.00
2019-02-20T09:12:45.199Z,17.37
2019-02-20T09:15:16.284Z,15.37
2019-02-20T09:17:55.519Z,17.23
2019-02-20T09:20:32.105Z,17.03
2019-02-20T09:23:03.593Z,20.07
2019-02-20T09:25:41.456Z,18.37
2019-02-20T09:28:07.710Z,18.13
2019-02-20T09:30:38.240Z,17.87
2019-02-20T09:33:11.662Z,18.07
2019-02-20T09:35:42.879Z,17.40
2019-02-20T09:38:15.308Z,16.83
2019-02-20T09:40:46.413Z,17.97
2019-02-20T09:43:19.738Z,17.13
2019-02-20T09:45:54.101Z,16.57
2019-02-20T09:48:25.589Z,18.33
2019-02-20T09:50:59.330Z,17.33
2019-02-20T09:53:33.180Z,17.33
2019-02-20T09:56:05.627Z,17.33
2019-02-20T09:58:55.315Z,16.83
2019-02-20T10:01:27.046Z,16.43
2019-02-20T10:04:00.882Z,15.57
2019-02-20T10:06:36.377Z,17.27
2019-02-20T10:09:07.562Z,17.17
2019-02-20T10:11:40.814Z,17.07
2019-02-20T10:14:14.153Z,18.40
2019-02-20T10:16:44.938Z,16.87
2019-02-20T10:19:15.966Z,17.53
2019-02-20T10:21:47.805Z,19.70
2019-02-20T10:24:23.157Z,18.17
2019-02-20T10:27:01.087Z,16.77
2019-02-20T10:29:39.092Z,17.87
2019-02-20T10:32:10.293Z,16.63
2019-02-20T10:34:43.238Z,17.87
2019-02-20T10:37:13.997Z,16.50
2019-02-20T10:39:44.837Z,16.70
2019-02-20T10:42:18.217Z,17.43
2019-02-20T10:44:49.325Z,16.53
2019-02-20T10:47:20.648Z,17.13
2019-02-20T10:49:51.688Z,15.30
2019-02-20T10:52:28.647Z,14.80
2019-02-20T10:55:00.390Z,15.40
2019-02-20T10:57:32.107Z,15.87
2019-02-20T11:00:03.826Z,14.67
2019-02-20T11:02:38.696Z,14.50
2019-02-20T11:05:15.392Z,14.73
2019-02-20T11:07:49.836Z,14.27
2019-02-20T11:10:24.037Z,13.73
2019-02-20T11:12:55.097Z,15.17
2019-02-20T11:15:26.266Z,14.97
2019-02-20T11:17:57.154Z,13.57
2019-02-20T11:20:27.967Z,13.43
2019-02-20T11:22:59.852Z,13.03
2019-02-20T11:25:33.718Z,14.43
2019-02-20T11:28:12.490Z,12.70
2019-02-20T11:30:47.626Z,12.80
2019-02-20T11:33:18.601Z,12.43
2019-02-20T11:35:49.443Z,10.53
2019-02-20T11:38:23.155Z,10.17
2019-02-20T11:40:55.600Z,10.57
2019-02-20T11:43:30.182Z,11.17
2019-02-20T11:46:01.192Z,11.33
2019-02-20T11:48:38.107Z,10.03
2019-02-20T11:51:11.874Z,9.83
2019-02-20T11:53:46.098Z,11.63
2019-02-20T11:56:26.650Z,10.97
2019-02-20T11:59:09.368Z,10.87
2019-02-20T12:01:40.307Z,11.17
2019-02-20T12:04:15.643Z,11.10
2019-02-20T12:06:50.840Z,11.37
2019-02-20T12:09:25.090Z,11.13
2019-02-20T12:12:01.097Z,11.70
2019-02-20T12:14:32.036Z,11.80
2019-02-20T12:17:09.070Z,11.33
2019-02-20T12:19:42.616Z,9.70
2019-02-20T12:22:14.139Z,10.83
2019-02-20T12:24:45.691Z,12.43
2019-02-20T12:27:16.837Z,10.03
2019-02-20T12:29:48.085Z,10.93
2019-02-20T12:32:19.097Z,11.87
2019-02-20T12:34:49.934Z,10.27
2019-02-20T12:37:29.070Z,10.43
2019-02-20T12:40:05.128Z,8.87
2019-02-20T12:42:39.399Z,8.77
2019-02-20T12:45:19.548Z,9.90
2019-02-20T12:47:48.602Z,10.63
2019-02-20T12:50:28.509Z,10.50
2019-02-20T12:53:03.531Z,10.27
2019-02-20T12:55:37.659Z,10.87
2019-02-20T12:58:13.807Z,11.37
2019-02-20T13:00:44.951Z,12.70
2019-02-20T13:03:19.810Z,10.63
2019-02-20T13:05:56.986Z,17.77
2019-02-20T13:08:33.631Z,10.90
2019-02-20T13:11:14.557Z,9.73
2019-02-20T13:13:46.108Z,11.57
2019-02-20T13:16:17.102Z,10.53
2019-02-20T13:18:50.125Z,10.90
2019-02-20T13:21:20.722Z,10.53
2019-02-20T13:23:52.677Z,9.73
2019-02-20T13:26:26.628Z,10.23
2019-02-20T13:29:00.298Z,9.67
2019-02-20T13:31:40.692Z,9.97
2019-02-20T13:34:11.311Z,9.20
2019-02-20T13:36:44.613Z,8.70
2019-02-20T13:39:17.064Z,8.00
2019-02-20T13:41:48.272Z,8.70
2019-02-20T13:44:18.715Z,7.90
2019-02-20T13:46:49.847Z,9.13
2019-02-20T13:49:27.932Z,8.10
2019-02-20T13:52:07.893Z,9.53
2019-02-20T13:54:42.653Z,8.43
2019-02-20T13:57:18.127Z,7.50
2019-02-20T14:00:00.886Z,7.10
2019-02-20T14:02:39.680Z,7.83
2019-02-20T14:05:10.761Z,7.33
2019-02-20T14:07:46.601Z,8.47
2019-02-20T14:10:20.873Z,8.17
2019-02-20T14:12:58.010Z,7.97
2019-02-20T14:15:35.807Z,7.57
2019-02-20T14:18:07.089Z,6.73
2019-02-20T14:20:38.516Z,7.07
2019-02-20T14:23:11.629Z,8.33
2019-02-20T14:25:46.863Z,7.87
2019-02-20T14:28:23.123Z,7.53
2019-02-20T14:30:58.353Z,8.20
2019-02-20T14:33:31.118Z,7.33
2019-02-20T14:36:07.560Z,6.87
2019-02-20T14:38:38.767Z,8.33
2019-02-20T14:41:11.790Z,7.40
2019-02-20T14:43:43.114Z,6.83
2019-02-20T14:46:16.526Z,7.80
2019-02-20T14:48:47.531Z,7.33
2019-02-20T14:51:22.004Z,7.73
2019-02-20T14:53:54.401Z,7.63
2019-02-20T14:56:30.872Z,6.77
2019-02-20T14:59:05.471Z,7.67
2019-02-20T15:01:36.628Z,7.13
2019-02-20T15:04:10.860Z,8.57
2019-02-20T15:06:43.094Z,7.60
2019-02-20T15:09:14.340Z,8.97
2019-02-20T15:11:45.649Z,8.10
2019-02-20T15:14:17.110Z,7.87
2019-02-20T15:16:52.719Z,9.07
2019-02-20T15:19:26.529Z,8.07
2019-02-20T15:22:00.876Z,8.83
2019-02-20T15:24:32.331Z,8.70
2019-02-20T15:27:08.751Z,7.77
2019-02-20T15:29:41.530Z,8.10
2019-02-20T15:32:28.122Z,7.37
2019-02-20T15:34:58.781Z,7.03
2019-02-20T15:37:29.968Z,8.37
2019-02-20T15:40:05.854Z,7.77
2019-02-20T15:42:37.909Z,7.53
2019-02-20T15:45:10.383Z,7.93
2019-02-20T15:47:44.187Z,7.87
2019-02-20T15:50:16.660Z,8.27
2019-02-20T15:52:47.807Z,8.67
2019-02-20T15:55:20.094Z,8.63
2019-02-20T15:57:51.271Z,9.37
2019-02-20T16:00:26.144Z,8.13
2019-02-20T16:02:57.251Z,8.43
2019-02-20T16:05:30.813Z,8.40
2019-02-20T16:08:07.265Z,8.47
2019-02-20T16:10:38.598Z,8.60
2019-02-20T16:13:09.620Z,8.53
2019-02-20T16:15:41.633Z,10.47
2019-02-20T16:18:25.659Z,9.13
2019-02-20T16:21:03.169Z,8.37
2019-02-20T16:23:41.027Z,8.30
2019-02-20T16:26:21.812Z,8.60
2019-02-20T16:29:11.143Z,9.20
2019-02-20T16:31:46.615Z,9.03
2019-02-20T16:34:21.694Z,9.33
2019-02-20T16:36:58.350Z,9.67
2019-02-20T16:39:34.281Z,9.17
2019-02-20T16:42:04.870Z,9.83
2019-02-20T16:44:35.885Z,10.97
2019-02-20T16:47:07.795Z,10.23
2019-02-20T16:50:00.012Z,8.93
2019-02-20T16:52:32.502Z,10.60
2019-02-20T16:55:07.088Z,11.20
2019-02-20T16:57:38.226Z,11.10
2019-02-20T17:00:09.854Z,10.70
2019-02-20T17:02:45.587Z,10.37
2019-02-20T17:05:19.472Z,10.43
2019-02-20T17:07:52.128Z,11.10
2019-02-20T17:10:23.592Z,11.47
2019-02-20T17:12:57.003Z,11.37
2019-02-20T17:15:34.352Z,11.17
2019-02-20T17:18:05.796Z,13.50
2019-02-20T17:20:40.073Z,13.50
2019-02-20T17:23:14.528Z,13.10
2019-02-20T17:25:48.872Z,12.17
2019-02-20T17:28:19.894Z,11.43
2019-02-20T17:30:51.291Z,14.07
2019-02-20T17:33:24.797Z,11.60
2019-02-20T17:36:01.080Z,11.53
2019-02-20T17:38:42.429Z,12.03
2019-02-20T17:41:21.230Z,12.67
2019-02-20T17:44:07.093Z,12.67
2019-02-20T17:46:41.349Z,11.80
2019-02-20T17:49:13.465Z,12.87
2019-02-20T17:51:50.990Z,15.33
2019-02-20T17:54:26.351Z,14.47
2019-02-20T17:56:59.287Z,13.83
2019-02-20T17:59:35.457Z,13.67
2019-02-20T18:02:06.246Z,12.33
2019-02-20T18:04:38.310Z,12.47
2019-02-20T18:07:14.111Z,12.33
2019-02-20T18:09:46.236Z,13.13
2019-02-20T18:12:45.380Z,13.70
2019-02-20T18:15:11.875Z,12.83
2019-02-20T18:17:45.417Z,13.67
2019-02-20T18:20:30.436Z,12.87
2019-02-20T18:23:05.134Z,11.87
2019-02-20T18:25:51.180Z,13.27
2019-02-20T18:28:24.088Z,12.23
2019-02-20T18:31:14.550Z,11.80
2019-02-20T18:33:47.176Z,14.10
2019-02-20T18:36:22.424Z,13.07
2019-02-20T18:38:57.827Z,15.47
2019-02-20T18:41:29.209Z,14.60
2019-02-20T18:44:04.091Z,13.30
2019-02-20T18:46:37.372Z,12.37
2019-02-20T18:49:21.355Z,14.30
2019-02-20T18:51:55.879Z,14.07
2019-02-20T18:54:28.397Z,14.80
2019-02-20T18:57:02.110Z,14.77
2019-02-20T18:59:36.823Z,15.40
2019-02-20T19:02:15.255Z,13.90
2019-02-20T19:05:05.027Z,15.37
2019-02-20T19:07:36.966Z,15.20
2019-02-20T19:10:14.747Z,15.40
2019-02-20T19:13:20.681Z,14.47
2019-02-20T19:16:38.516Z,14.70
2019-02-20T19:19:34.694Z,13.70
2019-02-20T19:22:34.318Z,14.03
2019-02-20T19:25:57.636Z,16.20
2019-02-20T19:28:45.489Z,15.83
2019-02-20T19:32:01.627Z,15.43
2019-02-20T19:35:07.124Z,15.13
2019-02-20T19:38:50.069Z,15.67
2019-02-20T19:42:07.129Z,15.47
2019-02-20T19:45:00.665Z,15.13
2019-02-20T19:48:04.714Z,14.83
2019-02-20T19:51:34.347Z,15.27
2019-02-20T19:54:24.048Z,15.93
2019-02-20T19:57:49.824Z,14.67
2019-02-20T20:01:13.662Z,15.27
2019-02-20T20:04:11.096Z,13.77
2019-02-20T20:07:19.285Z,15.23
2019-02-20T20:10:30.092Z,13.77
2019-02-20T20:13:57.263Z,15.63
2019-02-20T20:16:59.123Z,13.80
2019-02-20T20:20:49.818Z,12.70
2019-02-20T20:24:10.347Z,14.23
2019-02-20T20:27:15.935Z,14.63
2019-02-20T20:30:37.493Z,15.13
2019-02-20T20:33:49.700Z,13.03
2019-02-20T20:37:17.042Z,13.57
2019-02-20T20:40:30.685Z,12.23
2019-02-20T20:43:22.531Z,12.87
2019-02-20T20:46:30.087Z,11.73
2019-02-20T20:49:53.588Z,12.20
2019-02-20T20:53:03.277Z,12.63
2019-02-20T20:56:22.311Z,13.50
2019-02-20T20:59:40.659Z,13.47
2019-02-20T21:02:55.302Z,13.57
2019-02-20T21:05:57.893Z,16.03
2019-02-20T21:09:17.991Z,16.87
2019-02-20T21:12:19.084Z,17.03
2019-02-20T21:15:29.709Z,17.67
2019-02-20T21:18:43.890Z,18.20
2019-02-20T21:21:29.493Z,15.13
2019-02-20T21:24:45.855Z,17.90
2019-02-20T21:28:12.336Z,17.10
2019-02-20T21:31:29.960Z,15.50
2019-02-20T21:34:30.435Z,17.00
2019-02-20T21:37:44.569Z,17.33
2019-02-20T21:40:47.298Z,15.70
2019-02-20T21:44:00.877Z,15.40
2019-02-20T21:47:06.964Z,16.07
2019-02-20T21:50:06.347Z,12.90
2019-02-20T21:53:34.258Z,12.37
2019-02-20T21:56:34.304Z,12.77
2019-02-20T21:59:47.646Z,14.37
2019-02-20T22:02:51.094Z,13.63
2019-02-20T22:05:58.450Z,13.60
2019-02-20T22:09:30.183Z,14.90
2019-02-20T22:12:33.519Z,13.77
2019-02-20T22:15:43.880Z,12.40
2019-02-20T22:19:10.395Z,13.00
2019-02-20T22:22:23.119Z,13.83
2019-02-20T22:25:25.053Z,13.93
2019-02-20T22:28:45.278Z,13.80
2019-02-20T22:31:48.115Z,11.77
2019-02-20T22:35:07.842Z,13.57
2019-02-20T22:38:21.177Z,12.10
2019-02-20T22:41:29.310Z,13.63
2019-02-20T22:44:58.185Z,15.70
2019-02-20T22:48:04.388Z,13.97
2019-02-20T22:51:11.603Z,12.53
2019-02-20T22:54:23.545Z,12.63
2019-02-20T22:57:48.556Z,13.77
2019-02-20T23:01:21.334Z,12.93
2019-02-20T23:04:38.820Z,13.90
2019-02-20T23:08:03.099Z,11.47
2019-02-20T23:11:09.026Z,13.20
2019-02-20T23:14:04.223Z,14.43
2019-02-20T23:16:35.451Z,13.23
2019-02-20T23:19:06.273Z,14.80
2019-02-20T23:21:37.388Z,14.50
2019-02-20T23:24:11.334Z,13.73
2019-02-20T23:26:42.768Z,13.57
2019-02-20T23:29:13.752Z,13.70
2019-02-20T23:31:44.222Z,13.80
2019-02-20T23:34:16.039Z,13.37
2019-02-20T23:36:47.539Z,14.80
2019-02-20T23:39:19.276Z,14.20
2019-02-20T23:41:50.164Z,14.53
2019-02-20T23:44:20.868Z,13.53
2019-02-20T23:46:51.588Z,14.40
2019-02-20T23:49:22.320Z,14.10
2019-02-20T23:51:52.748Z,14.20
2019-02-20T23:54:25.960Z,13.40
2019-02-20T23:56:56.825Z,14.07
2019-02-20T23:59:28.088Z,14.33
